Time;durP1;ratioP1;P1;durP2;ratioP2;P2;SDS_P1;SDS_P2;PMS_P1;PMS_P2;Temp;Humidity;BMP_temperature;BMP_pressure;BME280_temperature;BME280_humidity;BME280_pressure;Samples;Min_cycle;Max_cycle;Signal;HPM_P1;HPM_P2
2021/04/02 00:00:15;;;;;;;8.00;5.40;;;15.20;87.10;;;;;;5057543;28;20233;-58
2021/04/02 00:02:41;;;;;;;8.53;5.13;;;15.10;86.10;;;;;;5057148;28;20239;-58
2021/04/02 00:05:07;;;;;;;8.83;5.87;;;15.00;85.30;;;;;;5057322;28;20177;-54
2021/04/02 00:07:33;;;;;;;8.03;5.23;;;14.90;85.00;;;;;;5057506;28;20242;-53
2021/04/02 00:09:58;;;;;;;10.07;6.70;;;14.90;85.50;;;;;;5056777;28;20532;-54
2021/04/02 00:12:24;;;;;;;10.60;7.10;;;14.80;85.40;;;;;;5056489;28;20262;-47
2021/04/02 00:14:49;;;;;;;13.73;6.73;;;14.70;85.30;;;;;;5056498;28;20696;-48
2021/04/02 00:17:15;;;;;;;9.23;6.57;;;14.70;85.60;;;;;;5056998;28;20696;-57
2021/04/02 00:19:40;;;;;;;11.40;6.60;;;14.70;86.40;;;;;;5056899;28;20179;-56
2021/04/02 00:22:06;;;;;;;10.40;6.03;;;14.60;86.60;;;;;;5056660;28;20179;-59
2021/04/02 00:24:31;;;;;;;11.27;6.10;;;14.60;86.40;;;;;;5056278;28;20179;-52
2021/04/02 00:26:57;;;;;;;12.57;5.93;;;14.50;86.40;;;;;;5056578;28;20200;-54
2021/04/02 00:29:23;;;;;;;10.83;6.03;;;14.50;86.70;;;;;;5056409;28;20218;-56
2021/04/02 00:31:48;;;;;;;8.13;5.57;;;14.50;87.90;;;;;;5056186;28;20189;-56
2021/04/02 00:34:14;;;;;;;8.20;5.70;;;14.50;88.40;;;;;;5056633;28;20224;-55
2021/04/02 00:36:39;;;;;;;11.33;6.50;;;14.40;88.90;;;;;;5056049;28;20212;-55
2021/04/02 00:39:05;;;;;;;9.83;5.73;;;14.40;89.90;;;;;;5056470;28;20175;-58
2021/04/02 00:41:31;;;;;;;9.10;5.70;;;14.30;90.40;;;;;;5055920;28;20266;-51
2021/04/02 00:43:56;;;;;;;7.30;5.63;;;14.30;90.50;;;;;;5056149;28;20179;-57
2021/04/02 00:46:23;;;;;;;13.00;6.40;;;14.20;90.40;;;;;;5056079;28;20205;-56
2021/04/02 00:48:49;;;;;;;12.40;6.37;;;14.20;90.40;;;;;;5056876;28;20214;-48
2021/04/02 00:51:20;;;;;;;10.20;5.93;;;14.20;90.40;;;;;;5056711;28;20183;-48
2021/04/02 00:53:46;;;;;;;10.13;6.27;;;14.20;90.20;;;;;;5056042;28;20254;-58
2021/04/02 00:56:13;;;;;;;12.70;6.07;;;14.10;90.00;;;;;;5056135;28;20284;-58
2021/04/02 00:58:39;;;;;;;11.47;5.93;;;14.00;89.30;;;;;;5056092;28;20183;-59
2021/04/02 01:01:06;;;;;;;10.53;6.27;;;14.00;88.60;;;;;;5055759;28;20175;-48
2021/04/02 01:03:33;;;;;;;11.80;6.27;;;14.00;88.40;;;;;;5056226;28;20183;-57
2021/04/02 01:06:03;;;;;;;11.63;6.10;;;13.90;88.20;;;;;;5055480;28;20245;-49
2021/04/02 01:08:36;;;;;;;7.33;5.40;;;13.90;88.40;;;;;;5055155;28;20234;-54
2021/04/02 01:11:05;;;;;;;10.40;5.63;;;13.90;88.30;;;;;;5056049;28;20179;-57
2021/04/02 01:13:44;;;;;;;10.37;5.67;;;13.90;88.10;;;;;;5055603;28;20194;-49
2021/04/02 01:16:16;;;;;;;9.03;5.73;;;13.80;87.50;;;;;;5055800;28;20206;-48
2021/04/02 01:18:55;;;;;;;11.27;5.33;;;13.90;87.10;;;;;;5055425;28;20180;-57
2021/04/02 01:21:32;;;;;;;9.07;5.63;;;13.80;87.10;;;;;;5055690;28;20175;-47
2021/04/02 01:24:00;;;;;;;9.03;6.10;;;13.80;87.00;;;;;;5055909;28;20169;-59
2021/04/02 01:27:01;;;;;;;10.20;5.37;;;13.70;86.80;;;;;;5055270;28;20627;-48
2021/04/02 01:29:42;;;;;;;10.13;5.33;;;13.70;87.00;;;;;;5055518;28;20196;-58
2021/04/02 01:32:12;;;;;;;7.87;5.57;;;13.60;86.90;;;;;;5055491;28;20183;-48
2021/04/02 01:34:43;;;;;;;8.97;5.50;;;13.60;86.70;;;;;;5055604;28;20179;-48
2021/04/02 01:37:20;;;;;;;9.87;5.73;;;13.60;86.30;;;;;;5054819;28;20211;-58
2021/04/02 01:39:47;;;;;;;13.40;6.10;;;13.60;86.20;;;;;;5055278;28;20175;-57
2021/04/02 01:42:19;;;;;;;11.37;5.57;;;13.50;86.20;;;;;;5054941;28;20597;-54
2021/04/02 01:44:47;;;;;;;6.73;5.27;;;13.50;86.40;;;;;;5055477;28;20217;-47
2021/04/02 01:47:13;;;;;;;8.40;5.80;;;13.50;86.60;;;;;;5054743;28;20202;-58
2021/04/02 01:49:40;;;;;;;9.63;6.00;;;13.50;86.90;;;;;;5054745;28;20218;-49
2021/04/02 01:52:07;;;;;;;7.97;5.47;;;13.40;87.80;;;;;;5054722;28;20179;-54
2021/04/02 01:54:34;;;;;;;10.53;6.00;;;13.20;87.60;;;;;;5055048;28;20171;-58
2021/04/02 01:57:01;;;;;;;10.60;5.37;;;13.30;87.70;;;;;;5054543;28;20689;-57
2021/04/02 01:59:27;;;;;;;11.53;5.93;;;13.30;87.70;;;;;;5054526;28;20273;-48
2021/04/02 02:01:54;;;;;;;13.10;6.30;;;13.30;87.90;;;;;;5054669;28;20179;-47
2021/04/02 02:04:22;;;;;;;14.77;6.00;;;13.20;87.90;;;;;;5054804;28;20175;-51
2021/04/02 02:06:50;;;;;;;9.77;5.90;;;13.10;88.00;;;;;;5064329;28;20206;-49
2021/04/02 02:09:18;;;;;;;8.87;5.83;;;13.10;87.80;;;;;;5074685;28;20205;-49
2021/04/02 02:11:47;;;;;;;8.43;5.73;;;13.00;88.10;;;;;;5074227;28;20167;-57
2021/04/02 02:14:16;;;;;;;14.57;5.90;;;13.00;87.80;;;;;;5074562;28;20579;-48
2021/04/02 02:16:45;;;;;;;8.00;5.70;;;13.00;87.90;;;;;;5074719;28;20202;-48
2021/04/02 02:19:19;;;;;;;16.20;6.03;;;12.90;88.10;;;;;;5073619;28;20193;-47
2021/04/02 02:21:47;;;;;;;11.47;5.97;;;12.90;88.10;;;;;;5074298;28;20614;-59
2021/04/02 02:24:13;;;;;;;9.67;6.10;;;12.90;88.40;;;;;;5074327;28;20202;-59
2021/04/02 02:26:39;;;;;;;10.40;6.17;;;12.80;88.20;;;;;;5074046;28;20205;-48
2021/04/02 02:29:05;;;;;;;13.20;8.17;;;12.70;88.50;;;;;;5074247;28;20741;-57
2021/04/02 02:31:31;;;;;;;12.83;7.50;;;12.60;88.50;;;;;;5074258;28;20256;-47
2021/04/02 02:33:58;;;;;;;13.30;8.23;;;12.60;88.40;;;;;;5062042;28;20281;-48
2021/04/02 02:36:24;;;;;;;14.17;8.23;;;12.60;88.50;;;;;;5055116;28;20258;-51
2021/04/02 02:38:50;;;;;;;14.20;8.53;;;12.60;88.60;;;;;;5058865;28;20638;-48
2021/04/02 02:41:16;;;;;;;10.47;7.93;;;12.60;88.80;;;;;;5056335;28;20179;-49
2021/04/02 02:43:41;;;;;;;15.43;7.93;;;12.50;89.20;;;;;;5065028;28;20209;-57
2021/04/02 02:46:07;;;;;;;12.83;8.13;;;12.40;89.20;;;;;;5058140;28;20298;-48
2021/04/02 02:48:32;;;;;;;13.20;8.13;;;13.10;89.90;;;;;;5073170;28;20206;-47
2021/04/02 02:51:00;;;;;;;13.50;8.77;;;12.30;89.50;;;;;;5063772;28;20235;-58
2021/04/02 02:53:28;;;;;;;14.77;8.63;;;12.30;89.80;;;;;;5061105;28;20179;-57
2021/04/02 02:55:55;;;;;;;15.97;9.47;;;12.30;89.80;;;;;;5050662;28;20206;-48
2021/04/02 02:58:26;;;;;;;13.73;9.10;;;12.30;89.60;;;;;;5051505;28;20174;-59
2021/04/02 03:00:54;;;;;;;15.83;9.90;;;12.30;90.00;;;;;;5053550;28;20220;-49
2021/04/02 03:03:21;;;;;;;14.93;9.90;;;12.20;90.00;;;;;;5054577;28;20183;-48
2021/04/02 03:05:49;;;;;;;20.97;13.57;;;12.20;90.10;;;;;;5052676;28;20206;-59
2021/04/02 03:08:21;;;;;;;20.27;13.33;;;12.20;90.30;;;;;;5053631;28;20667;-57
2021/04/02 03:10:48;;;;;;;23.50;15.07;;;12.20;90.30;;;;;;5051964;28;20171;-59
2021/04/02 03:13:18;;;;;;;26.57;16.97;;;12.20;90.40;;;;;;5053735;28;20262;-59
2021/04/02 03:15:45;;;;;;;26.70;16.53;;;12.20;90.50;;;;;;5053682;28;20205;-48
2021/04/02 03:18:14;;;;;;;26.00;16.47;;;12.20;90.30;;;;;;5053424;28;20167;-47
2021/04/02 03:20:42;;;;;;;25.50;16.13;;;12.20;90.50;;;;;;5053449;28;20259;-50
2021/04/02 03:23:10;;;;;;;29.30;15.27;;;12.20;90.40;;;;;;5053494;28;20183;-47
2021/04/02 03:25:38;;;;;;;31.43;18.37;;;12.20;90.50;;;;;;5053392;28;20647;-57
2021/04/02 03:28:05;;;;;;;30.57;18.20;;;12.10;90.70;;;;;;5053622;28;20176;-57
2021/04/02 03:30:31;;;;;;;27.00;17.93;;;12.10;90.80;;;;;;5054987;28;20215;-59
2021/04/02 03:33:10;;;;;;;25.00;16.00;;;12.10;90.90;;;;;;5057448;28;20175;-48
2021/04/02 03:35:37;;;;;;;28.47;17.23;;;12.10;90.70;;;;;;5057706;28;20191;-58
2021/04/02 03:38:03;;;;;;;27.53;16.77;;;12.00;91.00;;;;;;5057095;28;20187;-58
2021/04/02 03:40:31;;;;;;;32.20;19.33;;;12.00;90.90;;;;;;5057386;28;20278;-47
2021/04/02 03:42:59;;;;;;;27.17;19.00;;;12.00;91.40;;;;;;5056453;28;20237;-59
2021/04/02 03:45:26;;;;;;;27.17;19.53;;;12.00;91.30;;;;;;5059824;28;20194;-49
2021/04/02 03:47:54;;;;;;;27.10;19.13;;;12.00;91.70;;;;;;5066289;28;20190;-58
2021/04/02 03:50:22;;;;;;;30.57;19.57;;;11.90;91.70;;;;;;5061202;28;20209;-56
2021/04/02 03:53:08;;;;;;;26.10;16.80;;;12.00;91.90;;;;;;5059798;28;20198;-49
2021/04/02 03:55:39;;;;;;;25.50;17.00;;;11.90;91.60;;;;;;5064547;28;20203;-53
2021/04/02 03:58:08;;;;;;;24.53;16.80;;;11.90;91.80;;;;;;5066206;28;20294;-57
2021/04/02 04:00:49;;;;;;;26.90;17.07;;;11.80;92.40;;;;;;5064690;28;20190;-57
2021/04/02 04:03:17;;;;;;;31.37;20.50;;;11.70;92.30;;;;;;5057619;28;20187;-50
2021/04/02 04:05:46;;;;;;;29.00;19.83;;;11.70;92.30;;;;;;5063949;28;20207;-59
2021/04/02 04:08:14;;;;;;;29.53;19.27;;;11.70;92.40;;;;;;5063083;28;20191;-48
2021/04/02 04:10:41;;;;;;;27.10;18.87;;;11.80;92.30;;;;;;5060634;28;20191;-58
2021/04/02 04:13:10;;;;;;;27.07;18.83;;;11.80;92.60;;;;;;5064384;28;20551;-55
2021/04/02 04:15:37;;;;;;;28.27;17.97;;;11.80;92.80;;;;;;5063502;28;20203;-50
2021/04/02 04:18:03;;;;;;;29.93;18.53;;;11.70;93.00;;;;;;5065508;28;20673;-51
2021/04/02 04:20:29;;;;;;;28.83;17.97;;;11.80;93.00;;;;;;5059770;28;20256;-59
2021/04/02 04:22:56;;;;;;;27.30;18.80;;;11.80;93.40;;;;;;5061391;28;20203;-53
2021/04/02 04:25:24;;;;;;;28.80;19.13;;;12.50;94.00;;;;;;5056311;28;20187;-57
2021/04/02 04:27:52;;;;;;;27.07;18.93;;;11.70;93.80;;;;;;5056491;28;20582;-48
2021/04/02 04:30:18;;;;;;;26.00;18.03;;;11.60;94.00;;;;;;5056339;28;20210;-56
2021/04/02 04:32:44;;;;;;;30.47;20.07;;;11.40;94.60;;;;;;5056330;28;20171;-59
2021/04/02 04:35:12;;;;;;;28.47;19.20;;;11.20;95.10;;;;;;5056856;28;20237;-59
2021/04/02 04:37:40;;;;;;;27.80;18.40;;;11.10;95.80;;;;;;5056569;28;20218;-60
2021/04/02 04:40:11;;;;;;;27.13;19.33;;;11.00;96.50;;;;;;5056904;28;20293;-59
2021/04/02 04:42:37;;;;;;;28.80;18.37;;;10.90;97.00;;;;;;5054973;28;20540;-57
2021/04/02 04:45:07;;;;;;;25.17;17.50;;;10.90;97.60;;;;;;5056188;28;20258;-53
2021/04/02 04:47:33;;;;;;;24.40;17.50;;;10.90;97.70;;;;;;5056546;28;20179;-49
2021/04/02 04:49:58;;;;;;;24.23;15.57;;;10.80;98.30;;;;;;5056273;28;20286;-59
2021/04/02 04:52:27;;;;;;;19.63;15.13;;;10.80;99.60;;;;;;5067773;28;20202;-52
2021/04/02 04:54:54;;;;;;;23.90;15.30;;;10.80;99.90;;;;;;5075877;28;20163;-49
2021/04/02 04:57:21;;;;;;;24.73;16.03;;;10.70;99.90;;;;;;5070627;28;20186;-55
2021/04/02 04:59:50;;;;;;;25.07;15.47;;;10.60;99.90;;;;;;5073390;28;20240;-55
2021/04/02 05:02:17;;;;;;;26.00;16.63;;;10.60;99.90;;;;;;5061665;28;20616;-51
2021/04/02 05:04:43;;;;;;;25.03;16.93;;;10.50;99.90;;;;;;5073783;28;20220;-59
2021/04/02 05:07:10;;;;;;;23.77;16.27;;;10.40;99.90;;;;;;5072525;28;20546;-49
2021/04/02 05:09:38;;;;;;;27.67;17.07;;;10.40;99.90;;;;;;5081051;28;20612;-56
2021/04/02 05:12:06;;;;;;;24.33;16.43;;;10.50;99.90;;;;;;5078970;28;20538;-49
2021/04/02 05:14:33;;;;;;;26.63;17.60;;;10.40;99.90;;;;;;5078449;28;20183;-50
2021/04/02 05:17:00;;;;;;;25.90;18.80;;;10.30;99.90;;;;;;5067839;28;20245;-48
2021/04/02 05:19:26;;;;;;;28.77;19.60;;;10.10;99.90;;;;;;5088167;28;20207;-49
2021/04/02 05:21:52;;;;;;;27.63;19.93;;;10.00;99.90;;;;;;5076610;28;20193;-52
2021/04/02 05:24:18;;;;;;;32.03;22.23;;;10.00;99.90;;;;;;5088450;28;20581;-50
2021/04/02 05:26:44;;;;;;;30.50;21.10;;;10.00;99.90;;;;;;5074058;28;20209;-48
2021/04/02 05:29:09;;;;;;;35.43;24.67;;;10.00;99.90;;;;;;5079396;28;20202;-50
2021/04/02 05:31:35;;;;;;;40.17;25.77;;;10.00;99.90;;;;;;5083124;28;20665;-49
2021/04/02 05:34:01;;;;;;;37.40;26.10;;;9.90;99.90;;;;;;5065016;28;20231;-58
2021/04/02 05:36:26;;;;;;;42.60;26.20;;;9.90;99.90;;;;;;5063025;28;20218;-59
2021/04/02 05:38:52;;;;;;;37.33;26.20;;;9.90;99.90;;;;;;5063277;28;20673;-58
2021/04/02 05:41:23;;;;;;;40.90;26.23;;;10.00;99.90;;;;;;5052797;28;20183;-52
2021/04/02 05:43:55;;;;;;;42.90;28.00;;;10.00;99.90;;;;;;5059309;28;20287;-59
2021/04/02 05:46:24;;;;;;;41.60;26.13;;;10.00;99.90;;;;;;5063924;28;20229;-53
2021/04/02 05:49:05;;;;;;;39.90;26.23;;;10.00;99.90;;;;;;5063286;28;20558;-49
2021/04/02 05:51:30;;;;;;;39.97;27.00;;;10.00;99.90;;;;;;5074230;28;20184;-48
2021/04/02 05:53:57;;;;;;;40.20;27.57;;;10.00;99.90;;;;;;5057815;28;20199;-49
2021/04/02 05:56:24;;;;;;;37.63;26.43;;;10.10;99.90;;;;;;5055003;28;20191;-52
2021/04/02 05:58:53;;;;;;;40.50;26.70;;;10.20;99.90;;;;;;5067174;28;20240;-58
2021/04/02 06:01:19;;;;;;;39.43;26.70;;;10.30;99.90;;;;;;5073936;28;20664;-49
2021/04/02 06:03:45;;;;;;;38.07;26.80;;;10.40;99.90;;;;;;5068152;28;20202;-51
2021/04/02 06:06:13;;;;;;;40.40;27.13;;;10.50;99.90;;;;;;5074319;28;20221;-56
2021/04/02 06:08:44;;;;;;;39.13;28.33;;;10.50;99.90;;;;;;5058277;28;20206;-50
2021/04/02 06:11:10;;;;;;;41.17;27.23;;;10.60;99.90;;;;;;5053577;28;20160;-49
2021/04/02 06:13:36;;;;;;;38.83;28.00;;;10.70;99.90;;;;;;5053166;28;20270;-58
2021/04/02 06:16:02;;;;;;;39.53;27.00;;;10.70;99.90;;;;;;5053402;28;20226;-58
2021/04/02 06:18:28;;;;;;;34.60;25.73;;;10.80;99.90;;;;;;5054454;28;20175;-50
2021/04/02 06:20:55;;;;;;;40.43;25.77;;;11.00;99.90;;;;;;5054478;28;20186;-60
2021/04/02 06:23:25;;;;;;;39.03;27.00;;;11.10;99.90;;;;;;5054876;28;20171;-49
2021/04/02 06:25:54;;;;;;;36.77;27.83;;;11.10;99.90;;;;;;5054328;28;20199;-49
2021/04/02 06:28:29;;;;;;;35.83;27.20;;;11.20;99.90;;;;;;5054928;28;20201;-48
2021/04/02 06:31:00;;;;;;;38.67;26.83;;;11.30;99.90;;;;;;5053822;28;20174;-49
2021/04/02 06:33:37;;;;;;;35.57;26.30;;;11.40;99.90;;;;;;5054646;28;20183;-53
2021/04/02 06:36:15;;;;;;;40.03;27.93;;;11.50;99.90;;;;;;5054133;28;20258;-48
2021/04/02 06:38:46;;;;;;;33.43;25.33;;;11.70;99.90;;;;;;5054967;28;20179;-54
2021/04/02 06:41:12;;;;;;;35.90;26.73;;;11.80;99.90;;;;;;5053632;28;20175;-60
2021/04/02 06:43:44;;;;;;;36.00;26.17;;;12.00;99.90;;;;;;5054014;28;20248;-60
2021/04/02 06:46:11;;;;;;;33.43;25.77;;;12.10;99.90;;;;;;5053817;28;20206;-49
2021/04/02 06:48:37;;;;;;;33.20;25.87;;;12.10;99.90;;;;;;5054169;28;20237;-60
2021/04/02 06:51:09;;;;;;;33.33;26.10;;;12.20;99.90;;;;;;5054214;28;20179;-58
2021/04/02 06:53:36;;;;;;;36.60;25.13;;;12.40;99.90;;;;;;5054764;28;20163;-50
2021/04/02 06:56:03;;;;;;;33.83;24.77;;;12.70;99.90;;;;;;5070679;28;20252;-57
2021/04/02 06:58:29;;;;;;;30.03;24.50;;;12.90;99.90;;;;;;5073939;28;20641;-49
2021/04/02 07:01:01;;;;;;;33.00;23.73;;;13.00;99.90;;;;;;5073857;28;20480;-50
2021/04/02 07:03:29;;;;;;;31.10;23.43;;;13.00;99.90;;;;;;5074450;28;20556;-59
2021/04/02 07:05:55;;;;;;;35.67;25.83;;;13.00;99.90;;;;;;5073089;28;20273;-57
2021/04/02 07:08:23;;;;;;;32.03;24.77;;;13.00;99.90;;;;;;5065808;28;20241;-60
2021/04/02 07:10:50;;;;;;;33.40;25.57;;;12.60;99.90;;;;;;5055527;28;20178;-54
2021/04/02 07:13:16;;;;;;;28.37;23.57;;;12.40;99.90;;;;;;5052886;28;20171;-49
2021/04/02 07:15:41;;;;;;;30.37;23.60;;;12.30;99.90;;;;;;5053664;28;20198;-48
2021/04/02 07:18:10;;;;;;;28.83;22.60;;;12.40;99.90;;;;;;5036120;28;20179;-49
2021/04/02 07:20:36;;;;;;;28.90;23.07;;;12.70;99.90;;;;;;5054203;28;20214;-54
2021/04/02 07:23:02;;;;;;;25.47;20.77;;;12.90;99.90;;;;;;5053736;28;20175;-53
2021/04/02 07:25:29;;;;;;;28.27;21.47;;;13.10;99.90;;;;;;5054191;28;20198;-60
2021/04/02 07:27:56;;;;;;;26.30;20.53;;;13.30;99.90;;;;;;5053961;28;20504;-60
2021/04/02 07:30:23;;;;;;;29.43;21.60;;;13.40;99.90;;;;;;5053852;28;20204;-54
2021/04/02 07:32:50;;;;;;;25.20;20.53;;;13.20;99.90;;;;;;5053688;28;20185;-53
2021/04/02 07:35:22;;;;;;;24.50;20.00;;;13.00;99.90;;;;;;5054199;28;20225;-56
2021/04/02 07:37:54;;;;;;;24.53;19.80;;;12.80;99.90;;;;;;5053492;28;20555;-48
2021/04/02 07:40:24;;;;;;;24.67;20.33;;;12.60;99.90;;;;;;5053785;28;20179;-55
2021/04/02 07:42:53;;;;;;;23.77;19.63;;;12.20;99.90;;;;;;5053160;28;20534;-49
2021/04/02 07:45:22;;;;;;;22.83;18.60;;;12.10;99.90;;;;;;5060076;28;20238;-58
2021/04/02 07:48:08;;;;;;;22.90;17.20;;;12.20;99.90;;;;;;5051679;28;20190;-49
2021/04/02 07:50:44;;;;;;;27.83;18.70;;;12.20;99.90;;;;;;5052704;28;20191;-50
2021/04/02 07:53:18;;;;;;;22.10;17.13;;;12.20;99.90;;;;;;5053213;28;20171;-48
2021/04/02 07:56:16;;;;;;;22.10;18.00;;;12.20;99.90;;;;;;5053338;28;20195;-48
2021/04/02 07:58:48;;;;;;;21.40;17.43;;;12.10;99.90;;;;;;5043272;28;20195;-60
2021/04/02 08:01:16;;;;;;;24.33;17.90;;;12.00;99.90;;;;;;5053235;28;20171;-50
2021/04/02 08:03:44;;;;;;;22.67;17.30;;;12.00;99.90;;;;;;5051846;28;20294;-58
2021/04/02 08:06:26;;;;;;;22.07;17.97;;;12.00;99.90;;;;;;5053755;28;20195;-55
2021/04/02 08:08:51;;;;;;;21.57;17.43;;;12.00;99.90;;;;;;5053371;28;20285;-58
2021/04/02 08:11:26;;;;;;;20.93;17.70;;;12.10;99.90;;;;;;5052940;28;20566;-58
2021/04/02 08:14:04;;;;;;;22.37;18.33;;;12.20;99.90;;;;;;5053083;28;20179;-60
2021/04/02 08:16:33;;;;;;;25.17;19.20;;;12.30;99.90;;;;;;5053566;28;20577;-60
2021/04/02 08:19:07;;;;;;;22.33;18.47;;;12.40;99.90;;;;;;5057214;28;20167;-60
2021/04/02 08:21:34;;;;;;;22.17;17.97;;;12.30;99.90;;;;;;5056634;28;20202;-48
2021/04/02 08:24:02;;;;;;;21.00;17.53;;;12.20;99.90;;;;;;5056337;28;20187;-57
2021/04/02 08:26:32;;;;;;;24.43;18.70;;;12.20;99.90;;;;;;5056764;28;20203;-52
2021/04/02 08:29:03;;;;;;;21.00;18.03;;;12.30;99.90;;;;;;5056606;28;20234;-49
2021/04/02 08:31:29;;;;;;;22.00;18.93;;;12.30;99.90;;;;;;5056476;28;20538;-49
2021/04/02 08:33:55;;;;;;;22.90;18.70;;;12.30;99.90;;;;;;5055385;28;20195;-56
2021/04/02 08:36:26;;;;;;;23.13;18.73;;;12.40;99.90;;;;;;5060819;28;20245;-53
2021/04/02 08:38:53;;;;;;;21.53;18.40;;;12.40;99.90;;;;;;5066378;28;20182;-59
2021/04/02 08:41:20;;;;;;;23.67;18.73;;;12.40;99.90;;;;;;5064066;28;20208;-49
2021/04/02 08:43:46;;;;;;;22.27;19.23;;;12.50;99.90;;;;;;5065663;28;20567;-59
2021/04/02 08:46:14;;;;;;;20.03;17.70;;;12.50;99.90;;;;;;5063521;28;20682;-50
2021/04/02 08:48:39;;;;;;;23.10;19.20;;;12.60;99.90;;;;;;5062228;28;20171;-60
2021/04/02 08:51:05;;;;;;;21.97;18.43;;;12.70;99.90;;;;;;5067611;28;20228;-59
2021/04/02 08:53:41;;;;;;;23.07;19.50;;;12.70;99.90;;;;;;5064335;28;20186;-54
2021/04/02 08:56:07;;;;;;;23.23;19.33;;;12.80;99.90;;;;;;5063685;28;20266;-49
2021/04/02 08:58:34;;;;;;;22.87;19.17;;;12.80;99.90;;;;;;5063917;28;20210;-60
2021/04/02 09:01:02;;;;;;;23.03;19.43;;;13.00;99.90;;;;;;5063005;28;20265;-59
2021/04/02 09:03:29;;;;;;;22.47;18.67;;;13.10;99.90;;;;;;5066264;28;20171;-59
2021/04/02 09:05:55;;;;;;;22.67;19.00;;;13.30;99.90;;;;;;5064668;28;20194;-57
2021/04/02 09:08:21;;;;;;;22.40;19.27;;;13.50;99.90;;;;;;5065705;28;20217;-60
2021/04/02 09:10:48;;;;;;;23.30;19.67;;;13.80;99.30;;;;;;5065588;28;20235;-60
2021/04/02 09:13:14;;;;;;;24.47;19.20;;;13.90;99.80;;;;;;5064544;28;20175;-57
2021/04/02 09:15:45;;;;;;;20.73;17.77;;;14.10;99.90;;;;;;5063235;28;20199;-50
2021/04/02 09:18:19;;;;;;;21.20;18.40;;;14.30;99.90;;;;;;5065138;28;20168;-50
2021/04/02 09:20:45;;;;;;;22.30;18.73;;;14.70;97.80;;;;;;5065117;28;20634;-58
2021/04/02 09:23:12;;;;;;;21.97;17.90;;;15.00;97.20;;;;;;5063250;28;20182;-60
2021/04/02 09:25:42;;;;;;;24.17;19.47;;;15.20;97.40;;;;;;5063799;28;20201;-60
2021/04/02 09:28:08;;;;;;;23.07;19.67;;;15.30;95.90;;;;;;5064579;28;20646;-58
2021/04/02 09:30:34;;;;;;;23.77;19.90;;;15.50;96.60;;;;;;5069733;28;20566;-50
2021/04/02 09:33:00;;;;;;;24.10;20.17;;;15.50;95.90;;;;;;5074999;28;20245;-49
2021/04/02 09:35:25;;;;;;;24.03;19.63;;;15.80;95.30;;;;;;5075040;28;20661;-48
2021/04/02 09:37:52;;;;;;;24.87;19.50;;;15.40;94.10;;;;;;5074930;28;20193;-49
2021/04/02 09:40:17;;;;;;;24.47;19.97;;;15.30;94.10;;;;;;5074788;28;20269;-61
2021/04/02 09:42:47;;;;;;;23.17;19.03;;;15.70;94.60;;;;;;5074907;28;20262;-60
2021/04/02 09:45:13;;;;;;;21.37;18.43;;;15.90;93.10;;;;;;5074993;28;20204;-59
2021/04/02 09:47:47;;;;;;;21.90;18.23;;;15.80;93.50;;;;;;5074551;28;20250;-54
2021/04/02 09:50:15;;;;;;;20.43;18.23;;;15.50;94.00;;;;;;5074728;28;20210;-58
2021/04/02 09:52:43;;;;;;;22.53;19.93;;;15.50;92.50;;;;;;5074305;28;20179;-59
2021/04/02 09:55:09;;;;;;;24.17;19.10;;;15.50;92.60;;;;;;5064496;28;20176;-54
2021/04/02 09:57:35;;;;;;;20.67;18.13;;;15.50;92.70;;;;;;5060678;28;20551;-53
2021/04/02 10:00:01;;;;;;;20.43;17.30;;;15.30;92.00;;;;;;5074938;28;20623;-51
2021/04/02 10:02:27;;;;;;;20.63;16.43;;;15.10;90.80;;;;;;5074343;28;20251;-51
2021/04/02 10:04:53;;;;;;;18.50;15.87;;;15.00;92.60;;;;;;5065740;28;20669;-48
2021/04/02 10:07:19;;;;;;;17.00;14.90;;;15.00;91.40;;;;;;5058166;28;20206;-49
2021/04/02 10:09:44;;;;;;;15.60;13.90;;;15.30;91.70;;;;;;5068839;28;20257;-59
2021/04/02 10:12:10;;;;;;;19.17;15.57;;;15.50;89.30;;;;;;5074705;28;20202;-50
2021/04/02 10:14:36;;;;;;;15.90;13.43;;;15.50;90.10;;;;;;5074182;28;20750;-56
2021/04/02 10:17:03;;;;;;;15.10;12.43;;;15.40;87.00;;;;;;5074491;28;20213;-58
2021/04/02 10:19:29;;;;;;;15.57;13.70;;;15.40;86.90;;;;;;5069906;28;20282;-52
2021/04/02 10:21:55;;;;;;;15.67;12.83;;;15.40;84.70;;;;;;5071166;28;20267;-48
2021/04/02 10:24:20;;;;;;;13.63;12.23;;;15.50;86.30;;;;;;5065897;28;20532;-60
2021/04/02 10:26:48;;;;;;;14.00;11.50;;;15.70;85.10;;;;;;5057127;28;20279;-59
2021/04/02 10:29:13;;;;;;;12.53;11.23;;;15.90;83.00;;;;;;5067409;28;20210;-58
2021/04/02 10:31:39;;;;;;;12.47;10.93;;;16.20;77.60;;;;;;5063459;28;20190;-48
2021/04/02 10:34:05;;;;;;;11.23;10.03;;;17.90;80.50;;;;;;5053153;28;20179;-50
2021/04/02 10:36:30;;;;;;;12.97;10.87;;;16.40;79.10;;;;;;5054429;28;20215;-58
2021/04/02 10:38:56;;;;;;;11.00;9.90;;;16.80;80.00;;;;;;5056750;28;20190;-52
2021/04/02 10:41:21;;;;;;;11.87;10.67;;;17.50;76.20;;;;;;5052419;28;20285;-61
2021/04/02 10:43:47;;;;;;;11.40;10.30;;;18.10;75.90;;;;;;5053961;28;20628;-49
2021/04/02 10:46:13;;;;;;;10.87;8.93;;;18.10;71.10;;;;;;5052840;28;20195;-57
2021/04/02 10:48:39;;;;;;;9.73;8.83;;;17.70;65.30;;;;;;5054597;28;20182;-59
2021/04/02 10:51:05;;;;;;;8.37;7.47;;;17.50;65.80;;;;;;5055381;28;20180;-51
2021/04/02 10:53:30;;;;;;;8.13;7.10;;;17.40;64.90;;;;;;5073969;28;20180;-52
2021/04/02 10:56:00;;;;;;;10.23;9.20;;;17.70;62.80;;;;;;5073529;28;20220;-51
2021/04/02 10:58:26;;;;;;;11.30;9.00;;;18.10;66.00;;;;;;5073808;28;20210;-56
2021/04/02 11:00:52;;;;;;;9.70;8.77;;;18.70;68.60;;;;;;5074023;28;20269;-57
2021/04/02 11:03:17;;;;;;;10.67;9.03;;;18.90;66.80;;;;;;5074341;28;20258;-59
2021/04/02 11:05:43;;;;;;;8.70;7.80;;;19.10;64.40;;;;;;5073829;28;20204;-58
2021/04/02 11:08:09;;;;;;;7.40;6.70;;;19.70;65.90;;;;;;5073609;28;20214;-60
2021/04/02 11:10:35;;;;;;;9.05;6.78;;;20.90;63.60;;;;;;5061068;28;20291;-49
2021/04/02 11:13:00;;;;;;;7.40;6.22;;;22.10;58.40;;;;;;5053640;28;20230;-58
2021/04/02 11:15:26;;;;;;;7.35;6.38;;;23.20;57.00;;;;;;5053610;28;20191;-47
2021/04/02 11:17:52;;;;;;;7.85;7.00;;;25.00;53.50;;;;;;5053525;28;20582;-48
2021/04/02 11:20:21;;;;;;;8.15;7.35;;;25.50;51.90;;;;;;5053737;28;20485;-58
2021/04/02 11:22:47;;;;;;;7.45;5.82;;;25.50;48.60;;;;;;5053321;28;20206;-51
2021/04/02 11:25:13;;;;;;;6.55;5.88;;;25.70;49.30;;;;;;5053454;28;20180;-59
2021/04/02 11:27:39;;;;;;;5.97;5.38;;;25.50;45.90;;;;;;5058453;28;20201;-47
2021/04/02 11:30:07;;;;;;;6.75;6.10;;;26.60;47.10;;;;;;5073441;28;20554;-49
2021/04/02 11:32:33;;;;;;;6.10;5.50;;;28.90;43.50;;;;;;5073215;28;20554;-48
2021/04/02 11:34:59;;;;;;;6.13;5.53;;;30.20;41.70;;;;;;5073230;28;20645;-47
2021/04/02 11:37:24;;;;;;;6.38;5.78;;;29.50;40.10;;;;;;5073265;28;20187;-55
2021/04/02 11:39:50;;;;;;;7.32;6.60;;;28.10;40.00;;;;;;5073722;28;20575;-49
2021/04/02 11:42:16;;;;;;;6.47;5.88;;;26.00;41.10;;;;;;5073209;28;20179;-60
2021/04/02 11:44:42;;;;;;;8.05;7.25;;;25.50;44.70;;;;;;5073467;28;20195;-52
2021/04/02 11:47:08;;;;;;;8.02;7.22;;;25.30;42.80;;;;;;5073157;28;20234;-52
2021/04/02 11:49:34;;;;;;;7.95;7.15;;;24.30;44.20;;;;;;5073492;28;20207;-49
2021/04/02 11:52:00;;;;;;;7.70;6.70;;;24.20;44.30;;;;;;5075360;28;20167;-59
2021/04/02 11:54:26;;;;;;;7.20;6.30;;;23.80;45.90;;;;;;5076786;28;20660;-49
2021/04/02 11:56:52;;;;;;;7.70;6.90;;;23.60;47.30;;;;;;5076834;28;20730;-59
2021/04/02 11:59:18;;;;;;;8.60;7.70;;;24.00;44.60;;;;;;5076834;28;20216;-50
2021/04/02 12:01:44;;;;;;;12.07;7.97;;;23.70;48.50;;;;;;5076824;28;20215;-51
2021/04/02 12:04:10;;;;;;;9.07;8.18;;;23.50;46.50;;;;;;5077525;28;20170;-60
2021/04/02 12:06:36;;;;;;;9.15;8.25;;;22.80;48.30;;;;;;5076571;28;20205;-58
2021/04/02 12:09:03;;;;;;;10.38;9.38;;;22.00;49.40;;;;;;5076904;28;20202;-58
2021/04/02 12:11:29;;;;;;;10.50;9.38;;;22.10;49.70;;;;;;5076800;28;20556;-58
2021/04/02 12:13:54;;;;;;;10.52;9.52;;;22.60;48.90;;;;;;5077271;28;20178;-57
2021/04/02 12:16:20;;;;;;;10.50;9.45;;;22.40;48.20;;;;;;5076968;28;20191;-53
2021/04/02 12:18:45;;;;;;;9.65;8.77;;;22.10;48.40;;;;;;5077028;28;20526;-51
2021/04/02 12:21:11;;;;;;;10.10;9.10;;;22.90;49.50;;;;;;5076713;28;20163;-50
2021/04/02 12:23:37;;;;;;;10.50;9.50;;;23.90;50.10;;;;;;5076545;28;20232;-57
2021/04/02 12:26:03;;;;;;;10.73;9.63;;;23.00;48.60;;;;;;5076374;28;20187;-51
2021/04/02 12:28:28;;;;;;;10.80;9.70;;;22.40;48.60;;;;;;5075456;28;20550;-57
2021/04/02 12:30:54;;;;;;;11.43;10.27;;;21.80;50.40;;;;;;5076092;28;20198;-57
2021/04/02 12:33:19;;;;;;;10.75;9.65;;;21.00;51.00;;;;;;5075784;28;20166;-51
2021/04/02 12:35:45;;;;;;;10.57;9.38;;;20.30;53.90;;;;;;5074544;28;20200;-59